Time;durP1;ratioP1;P1;durP2;ratioP2;P2;SDS_P1;SDS_P2;PMS_P1;PMS_P2;Temp;Humidity;BMP_temperature;BMP_pressure;BME280_temperature;BME280_humidity;BME280_pressure;Samples;Min_cycle;Max_cycle;Signal;HPM_P1;HPM_P2
2021/12/26 00:01:21;;;;;;;110.65;58.78;;;;;;;7.25;57.25;94583.41;5003344;28;20041;-81
2021/12/26 00:03:47;;;;;;;111.00;57.33;;;;;;;7.19;57.82;94577.31;5035806;28;20491;-81
2021/12/26 00:06:19;;;;;;;116.47;55.17;;;;;;;7.17;57.42;94571.56;5035688;28;20444;-81
2021/12/26 00:08:44;;;;;;;101.78;52.20;;;;;;;7.11;57.57;94575.78;5019519;28;20040;-81
2021/12/26 00:11:10;;;;;;;110.22;47.25;;;;;;;7.11;57.83;94573.19;5037372;28;20033;-81
2021/12/26 00:13:35;;;;;;;139.15;67.97;;;;;;;7.08;57.74;94580.59;5003191;28;20054;-81
2021/12/26 00:16:01;;;;;;;135.93;64.70;;;;;;;7.04;58.02;94569.91;5017165;28;20056;-81
2021/12/26 00:18:27;;;;;;;162.98;76.35;;;;;;;7.04;57.69;94582.81;5017739;28;20041;-81
2021/12/26 00:20:52;;;;;;;171.30;83.07;;;;;;;6.90;57.72;94578.78;5001607;28;20037;-82
2021/12/26 00:23:18;;;;;;;157.02;76.22;;;;;;;6.90;58.40;94579.59;5017480;28;20033;-81
2021/12/26 00:25:44;;;;;;;166.15;79.25;;;;;;;6.89;57.93;94582.38;5017528;28;20033;-82
2021/12/26 00:28:10;;;;;;;144.32;67.93;;;;;;;6.89;58.49;94577.22;5017375;28;20520;-81
2021/12/26 00:30:35;;;;;;;145.25;66.65;;;;;;;6.80;58.13;94579.28;5033140;28;20026;-81
2021/12/26 00:33:01;;;;;;;192.98;94.47;;;;;;;6.83;57.96;94578.06;5018009;28;20026;-81
2021/12/26 00:35:26;;;;;;;203.52;96.35;;;;;;;6.82;57.72;94579.06;5000357;28;20057;-81
2021/12/26 00:37:52;;;;;;;162.30;78.85;;;;;;;6.75;57.88;94580.94;5034715;28;20119;-82
2021/12/26 00:40:19;;;;;;;169.77;82.15;;;;;;;6.66;57.85;94580.41;5035423;28;20425;-81
2021/12/26 00:42:45;;;;;;;195.73;100.45;;;;;;;6.65;58.11;94585.78;5033831;28;20121;-81
2021/12/26 00:45:10;;;;;;;181.63;96.13;;;;;;;6.58;58.40;94591.81;5033321;28;20147;-81
2021/12/26 00:47:36;;;;;;;156.90;77.45;;;;;;;6.41;58.92;94583.00;5033168;28;20432;-82
2021/12/26 00:50:01;;;;;;;85.22;43.33;;;;;;;6.48;59.54;94581.16;5034827;28;20400;-82
2021/12/26 00:52:27;;;;;;;80.80;44.20;;;;;;;6.52;59.48;94592.66;4999879;28;20037;-81
2021/12/26 00:54:53;;;;;;;108.32;60.83;;;;;;;6.51;59.42;94588.50;5016625;28;20065;-81
2021/12/26 00:57:18;;;;;;;165.20;85.03;;;;;;;6.46;58.41;94585.75;5034495;28;20034;-81
2021/12/26 00:59:46;;;;;;;124.38;64.25;;;;;;;6.46;59.15;94583.16;5033370;28;20029;-81
2021/12/26 01:02:14;;;;;;;154.70;74.85;;;;;;;6.44;58.71;94586.97;5032349;28;20022;-80
2021/12/26 01:04:39;;;;;;;171.68;87.88;;;;;;;6.41;58.60;94590.75;5016365;28;20116;-80
2021/12/26 01:07:13;;;;;;;130.45;63.53;;;;;;;6.44;58.52;94590.34;5016398;28;20061;-80
2021/12/26 01:09:38;;;;;;;80.55;43.47;;;;;;;6.45;58.83;94586.75;5000371;28;20088;-81
2021/12/26 01:12:12;;;;;;;76.65;38.22;;;;;;;6.44;59.26;94571.47;5033875;28;20460;-79
2021/12/26 01:14:45;;;;;;;86.93;46.08;;;;;;;6.41;59.40;94572.69;5017594;28;20033;-81
2021/12/26 01:17:15;;;;;;;158.43;77.05;;;;;;;6.48;58.26;94573.41;5005172;28;20033;-81
2021/12/26 01:19:47;;;;;;;89.18;46.45;;;;;;;6.40;59.85;94572.91;5032312;28;20040;-80
2021/12/26 01:22:13;;;;;;;100.68;46.40;;;;;;;6.39;59.42;94581.66;5032406;28;20083;-80
2021/12/26 01:24:38;;;;;;;126.00;56.38;;;;;;;6.34;59.31;94571.94;5032570;28;20116;-81
2021/12/26 01:27:04;;;;;;;167.95;86.20;;;;;;;6.32;58.70;94572.13;5031949;28;20048;-79
2021/12/26 01:29:30;;;;;;;151.20;70.13;;;;;;;6.24;59.74;94563.88;5031473;28;20029;-80
2021/12/26 01:31:55;;;;;;;148.98;77.85;;;;;;;6.28;59.62;94563.25;5016386;28;20050;-82
2021/12/26 01:34:21;;;;;;;137.98;66.82;;;;;;;6.33;59.38;94562.59;5000161;28;20037;-81
2021/12/26 01:36:47;;;;;;;115.15;58.20;;;;;;;6.27;59.80;94548.75;5032571;28;20488;-81
2021/12/26 01:39:13;;;;;;;79.07;41.03;;;;;;;6.22;60.15;94551.19;5033321;28;20104;-81
2021/12/26 01:41:41;;;;;;;144.02;74.43;;;;;;;6.29;59.27;94556.28;5033685;28;20034;-81
2021/12/26 01:44:10;;;;;;;106.20;53.40;;;;;;;6.32;59.89;94545.53;5030826;28;20508;-81
2021/12/26 01:46:35;;;;;;;185.32;92.45;;;;;;;6.29;58.47;94540.78;5015657;28;20385;-81
2021/12/26 01:49:22;;;;;;;121.82;63.97;;;;;;;6.28;60.08;94552.13;5032207;28;20041;-81
2021/12/26 01:51:49;;;;;;;74.97;41.25;;;;;;;6.28;59.82;94549.53;5049061;28;20045;-80
2021/12/26 01:54:26;;;;;;;104.50;55.65;;;;;;;6.22;59.96;94545.22;5000030;28;20525;-80
2021/12/26 01:56:51;;;;;;;103.00;51.97;;;;;;;6.25;59.37;94555.13;5001515;28;20112;-80
2021/12/26 01:59:17;;;;;;;110.32;53.45;;;;;;;6.20;59.96;94552.41;5033478;28;20040;-81
2021/12/26 02:01:42;;;;;;;86.38;45.90;;;;;;;6.12;60.15;94550.84;5032833;28;20393;-82
2021/12/26 02:04:07;;;;;;;85.03;41.75;;;;;;;6.11;59.57;94538.16;5033897;28;20512;-81
2021/12/26 02:06:33;;;;;;;84.97;43.67;;;;;;;6.09;60.11;94547.91;5034175;28;20037;-81
2021/12/26 02:08:59;;;;;;;103.10;52.60;;;;;;;6.00;59.72;94552.53;5015739;28;20025;-81
2021/12/26 02:11:24;;;;;;;110.32;55.67;;;;;;;5.92;59.83;94556.16;5015733;28;20037;-81
2021/12/26 02:13:50;;;;;;;96.68;47.05;;;;;;;5.86;59.87;94541.50;5033523;28;20044;-82
2021/12/26 02:16:15;;;;;;;83.45;45.40;;;;;;;5.85;60.93;94547.63;5034749;28;20021;-81
2021/12/26 02:18:43;;;;;;;82.93;43.25;;;;;;;5.86;61.19;94545.88;5032740;28;20489;-81
2021/12/26 02:23:44;;;;;;;133.77;63.22;;;;;;;5.75;61.09;94538.78;5027932;28;20025;-79
2021/12/26 02:28:44;;;;;;;185.77;87.45;;;;;;;5.80;60.85;94547.47;5036047;28;20048;-81
2021/12/26 02:31:10;;;;;;;138.32;70.28;;;;;;;5.84;60.31;94533.16;5031533;28;20100;-81
2021/12/26 02:33:35;;;;;;;134.38;71.38;;;;;;;5.82;60.69;94540.31;5015504;28;21022;-81
2021/12/26 02:36:03;;;;;;;128.77;64.82;;;;;;;5.85;61.02;94529.56;5032672;28;20021;-80
2021/12/26 02:38:28;;;;;;;126.82;64.25;;;;;;;5.85;60.60;94550.22;5032511;28;20497;-80
2021/12/26 02:40:55;;;;;;;170.82;81.47;;;;;;;5.81;60.38;94548.25;5032771;28;20087;-80
2021/12/26 02:43:21;;;;;;;162.50;81.50;;;;;;;5.79;60.17;94545.91;5015618;28;20033;-81
2021/12/26 02:45:47;;;;;;;174.88;82.43;;;;;;;5.76;60.87;94537.78;4998050;28;20037;-80
2021/12/26 02:48:13;;;;;;;144.50;73.38;;;;;;;5.75;60.90;94537.00;5033041;28;20107;-79
2021/12/26 02:50:39;;;;;;;144.30;69.18;;;;;;;5.74;61.45;94543.16;5033252;28;20044;-81
2021/12/26 02:53:04;;;;;;;117.97;63.03;;;;;;;5.75;61.51;94547.31;4999229;28;20033;-81
2021/12/26 02:55:30;;;;;;;149.25;73.82;;;;;;;5.78;61.09;94548.69;5031548;28;20032;-81
2021/12/26 02:57:59;;;;;;;137.35;64.00;;;;;;;5.81;61.58;94549.06;5015280;28;20030;-81
2021/12/26 03:00:26;;;;;;;108.72;58.90;;;;;;;5.75;61.46;94543.94;5019050;28;20029;-81
2021/12/26 03:02:53;;;;;;;121.72;64.82;;;;;;;5.84;61.21;94543.47;5019139;28;20119;-81
2021/12/26 03:05:18;;;;;;;137.98;67.00;;;;;;;5.88;61.05;94539.50;5035062;28;20034;-81
2021/12/26 03:07:45;;;;;;;129.93;67.28;;;;;;;5.83;61.31;94549.63;5035125;28;20037;-81
2021/12/26 03:10:20;;;;;;;133.15;70.88;;;;;;;5.82;60.86;94530.00;5001660;28;20489;-81
2021/12/26 03:12:46;;;;;;;145.50;74.78;;;;;;;5.87;60.16;94545.66;5034927;28;20035;-80
2021/12/26 03:15:11;;;;;;;172.68;86.07;;;;;;;5.78;61.16;94541.75;5001849;28;21048;-82
2021/12/26 03:17:37;;;;;;;188.35;94.43;;;;;;;5.80;60.35;94526.84;5035383;28;20025;-81
2021/12/26 03:20:13;;;;;;;167.85;82.30;;;;;;;5.80;60.87;94537.16;5018461;28;20041;-81
2021/12/26 03:22:38;;;;;;;133.98;70.57;;;;;;;5.82;60.82;94530.00;5017367;28;20081;-81
2021/12/26 03:25:07;;;;;;;158.98;83.13;;;;;;;5.84;61.08;94543.47;5034919;28;20481;-81
2021/12/26 03:27:33;;;;;;;107.88;56.90;;;;;;;5.76;61.06;94530.84;5039559;28;20032;-81
2021/12/26 03:30:01;;;;;;;140.98;75.20;;;;;;;5.78;61.21;94534.00;5034976;28;20063;-81
2021/12/26 03:32:26;;;;;;;118.90;60.85;;;;;;;5.69;61.45;94528.31;5034449;28;20057;-81
2021/12/26 03:34:52;;;;;;;131.55;63.13;;;;;;;5.78;60.84;94541.75;5016841;28;20421;-80
2021/12/26 03:37:17;;;;;;;105.43;52.63;;;;;;;5.77;61.22;94531.63;5034041;28;20025;-80
2021/12/26 03:39:43;;;;;;;79.65;43.03;;;;;;;5.84;60.95;94528.00;5035359;28;20037;-80
2021/12/26 03:42:09;;;;;;;82.57;39.88;;;;;;;5.79;61.76;94535.56;5000646;28;20052;-80
2021/12/26 03:44:34;;;;;;;87.85;47.75;;;;;;;5.78;61.26;94546.91;5017817;28;20037;-79
2021/12/26 03:46:59;;;;;;;105.55;53.78;;;;;;;5.72;61.90;94552.91;5016310;28;20050;-79
2021/12/26 03:49:26;;;;;;;93.78;53.42;;;;;;;5.81;60.89;94548.25;5035382;28;20037;-81
2021/12/26 03:51:51;;;;;;;116.70;58.53;;;;;;;5.88;61.29;94546.44;5034370;28;20026;-81
2021/12/26 03:54:17;;;;;;;124.82;66.90;;;;;;;5.85;60.98;94550.22;5033401;28;20037;-81
2021/12/26 03:56:51;;;;;;;90.32;46.83;;;;;;;5.86;61.17;94545.88;5035772;28;20033;-81
2021/12/26 03:59:20;;;;;;;123.50;65.05;;;;;;;5.88;61.35;94554.19;5057736;23;20049;-81
2021/12/26 04:01:45;;;;;;;130.77;64.80;;;;;;;5.98;60.97;94550.16;5035944;28;20090;-81
2021/12/26 04:04:11;;;;;;;114.68;63.78;;;;;;;6.06;60.86;94556.09;5043794;28;20624;-81
2021/12/26 04:06:36;;;;;;;115.20;64.50;;;;;;;6.01;60.79;94557.47;5046532;28;20083;-81
2021/12/26 04:09:01;;;;;;;122.93;63.58;;;;;;;5.99;60.94;94563.84;5044716;28;20446;-82
2021/12/26 04:11:35;;;;;;;106.65;59.08;;;;;;;6.04;60.89;94552.91;5045147;28;20036;-79
2021/12/26 04:14:00;;;;;;;110.63;59.85;;;;;;;6.09;60.51;94560.81;5045840;28;20063;-81
2021/12/26 04:16:26;;;;;;;103.75;59.38;;;;;;;6.06;60.81;94553.50;5041106;28;20029;-81
2021/12/26 04:18:51;;;;;;;105.43;57.53;;;;;;;6.10;60.54;94564.97;5043503;28;20033;-82
2021/12/26 04:21:23;;;;;;;96.03;52.50;;;;;;;6.12;60.94;94562.97;5009375;28;20033;-81
2021/12/26 04:23:48;;;;;;;88.75;51.80;;;;;;;6.16;61.05;94551.22;5045723;28;20041;-81
2021/12/26 04:26:13;;;;;;;85.22;45.65;;;;;;;6.12;60.92;94552.66;5042754;28;20097;-81
2021/12/26 04:28:39;;;;;;;88.82;49.63;;;;;;;6.17;60.54;94557.97;5046231;28;20033;-80
2021/12/26 04:31:04;;;;;;;71.50;40.53;;;;;;;6.12;61.03;94552.66;5046585;28;20033;-81
2021/12/26 04:33:30;;;;;;;73.00;40.63;;;;;;;6.26;60.74;94561.88;5046465;28;20037;-81
2021/12/26 04:36:02;;;;;;;58.55;32.17;;;;;;;6.22;61.00;94550.41;5010434;28;20478;-80
2021/12/26 04:38:27;;;;;;;51.67;29.13;;;;;;;6.28;60.38;94559.88;5043156;28;20138;-81
2021/12/26 04:40:55;;;;;;;66.20;38.95;;;;;;;6.29;60.72;94553.72;5027929;28;20054;-81
2021/12/26 04:43:22;;;;;;;72.93;41.50;;;;;;;6.29;60.42;94561.44;5045675;28;20037;-81
2021/12/26 04:45:48;;;;;;;75.75;41.50;;;;;;;6.33;60.22;94565.97;5043300;28;20038;-81
2021/12/26 04:48:13;;;;;;;95.43;53.03;;;;;;;6.38;60.30;94567.94;5046441;28;20036;-81
2021/12/26 04:50:42;;;;;;;95.82;52.95;;;;;;;6.41;60.28;94559.78;5045668;28;20029;-81
2021/12/26 04:53:08;;;;;;;99.97;55.97;;;;;;;6.50;60.07;94568.81;5012474;28;20095;-81
2021/12/26 04:55:33;;;;;;;99.68;56.03;;;;;;;6.50;60.01;94563.66;5040392;28;20028;-79
2021/12/26 04:58:01;;;;;;;108.47;61.88;;;;;;;6.48;60.22;94572.63;5071068;23;20044;-79
2021/12/26 05:00:28;;;;;;;127.65;73.07;;;;;;;6.54;59.68;94575.16;5030682;28;20083;-79
2021/12/26 05:02:55;;;;;;;121.50;69.18;;;;;;;6.59;60.30;94571.94;5079483;23;20037;-80
2021/12/26 05:05:20;;;;;;;134.70;79.45;;;;;;;6.56;60.01;94580.09;5014057;28;20030;-80
2021/12/26 05:07:46;;;;;;;136.50;78.78;;;;;;;6.55;60.07;94581.91;5015826;28;20032;-80
2021/12/26 05:10:13;;;;;;;133.57;73.47;;;;;;;6.53;60.31;94575.38;5023980;28;20034;-80
2021/12/26 05:12:41;;;;;;;101.82;58.65;;;;;;;6.52;60.18;94577.16;5007334;28;20041;-79
2021/12/26 05:15:08;;;;;;;95.88;53.53;;;;;;;6.52;60.35;94577.16;5021859;28;20379;-80
2021/12/26 05:17:34;;;;;;;71.07;39.92;;;;;;;6.58;60.10;94573.72;5006453;28;20107;-79
2021/12/26 05:19:59;;;;;;;79.78;42.65;;;;;;;6.62;59.42;94577.47;5005581;28;20037;-80
2021/12/26 05:22:24;;;;;;;79.60;44.10;;;;;;;6.61;59.73;94582.84;5024613;28;20064;-78
2021/12/26 05:24:50;;;;;;;97.82;51.30;;;;;;;6.62;60.19;94581.84;5024092;28;20065;-81
2021/12/26 05:27:16;;;;;;;80.38;41.22;;;;;;;6.59;59.98;94588.22;5020619;28;20033;-80
2021/12/26 05:29:41;;;;;;;97.63;51.20;;;;;;;6.68;59.58;94600.88;5023871;28;20460;-81
2021/12/26 05:32:07;;;;;;;96.80;51.72;;;;;;;6.71;59.41;94590.91;5008443;28;20026;-81
2021/12/26 05:34:32;;;;;;;91.95;51.03;;;;;;;6.73;60.05;94599.22;5005790;28;20041;-81
2021/12/26 05:36:57;;;;;;;106.88;57.47;;;;;;;6.73;59.92;94595.84;5025227;28;20052;-81
2021/12/26 05:39:23;;;;;;;94.72;46.80;;;;;;;6.70;60.10;94593.72;5024934;28;20087;-81
2021/12/26 05:41:48;;;;;;;58.90;34.40;;;;;;;6.67;59.87;94589.75;5025140;28;20051;-81
2021/12/26 05:44:14;;;;;;;62.33;34.15;;;;;;;6.61;60.57;94578.47;5008138;28;20034;-81
2021/12/26 05:46:39;;;;;;;67.75;34.03;;;;;;;6.73;60.34;94572.59;5022542;28;20490;-79
2021/12/26 05:49:05;;;;;;;51.55;28.55;;;;;;;6.60;60.61;94574.31;5010385;28;20670;-80
2021/12/26 05:51:33;;;;;;;48.72;29.02;;;;;;;6.58;61.47;94565.97;4993752;28;20045;-80
2021/12/26 05:53:59;;;;;;;53.33;29.23;;;;;;;6.63;61.58;94581.63;5026155;28;20044;-80
2021/12/26 05:56:24;;;;;;;56.30;30.23;;;;;;;6.74;61.26;94563.84;5024684;28;20037;-83
2021/12/26 05:58:52;;;;;;;45.22;26.25;;;;;;;6.66;61.05;94557.16;5006196;28;20107;-82
2021/12/26 06:01:17;;;;;;;56.13;32.30;;;;;;;6.59;61.43;94544.31;5008112;28;20034;-81
2021/12/26 06:03:45;;;;;;;50.17;25.25;;;;;;;6.62;60.65;94545.66;5029038;28;20030;-81
2021/12/26 06:06:16;;;;;;;64.68;33.65;;;;;;;6.65;61.55;94541.84;5010919;28;20029;-80
2021/12/26 06:08:42;;;;;;;66.75;36.15;;;;;;;6.71;62.33;94538.44;5031115;28;20532;-79
2021/12/26 06:11:07;;;;;;;51.53;30.38;;;;;;;6.76;62.62;94531.63;5018348;28;20037;-79
2021/12/26 06:13:33;;;;;;;83.00;42.55;;;;;;;6.76;63.06;94536.00;5012737;28;20034;-81
2021/12/26 06:15:59;;;;;;;30.58;19.10;;;;;;;6.65;61.03;94523.78;5023520;28;20080;-81
2021/12/26 06:18:25;;;;;;;56.13;29.40;;;;;;;6.69;61.44;94530.13;5004493;28;20033;-80
2021/12/26 06:20:50;;;;;;;58.70;30.20;;;;;;;6.67;62.65;94527.75;5004313;28;20776;-81
2021/12/26 06:23:16;;;;;;;48.75;27.25;;;;;;;6.62;62.74;94527.56;5021821;28;20029;-81
2021/12/26 06:25:41;;;;;;;51.35;28.23;;;;;;;6.57;62.89;94528.22;5020315;28;20456;-81
2021/12/26 06:28:06;;;;;;;48.53;27.10;;;;;;;6.40;63.89;94516.09;5023627;28;20041;-81
2021/12/26 06:30:32;;;;;;;41.28;25.40;;;;;;;6.43;63.72;94526.78;5030090;28;20140;-81
2021/12/26 06:32:58;;;;;;;47.03;26.63;;;;;;;6.33;63.82;94500.63;5021821;28;20104;-81
2021/12/26 06:35:23;;;;;;;42.53;26.17;;;;;;;6.43;64.08;94531.94;5010934;28;20079;-82
2021/12/26 06:37:51;;;;;;;47.80;24.40;;;;;;;6.45;64.28;94529.13;5017996;28;20037;-81
2021/12/26 06:40:17;;;;;;;49.90;27.05;;;;;;;6.58;64.01;94550.47;5039882;28;20041;-80
2021/12/26 06:42:44;;;;;;;57.10;27.80;;;;;;;6.63;64.33;94555.00;5030249;28;20033;-79
2021/12/26 06:45:14;;;;;;;63.58;33.75;;;;;;;6.68;64.79;94549.22;5015255;28;20061;-80
2021/12/26 06:47:42;;;;;;;63.30;33.53;;;;;;;6.72;64.50;94560.69;4994046;28;20033;-82
2021/12/26 06:50:08;;;;;;;64.13;34.25;;;;;;;6.69;64.51;94556.75;5009238;28;20036;-82
2021/12/26 06:52:33;;;;;;;56.78;32.80;;;;;;;6.67;65.00;94558.75;5026339;28;20109;-82
2021/12/26 06:54:59;;;;;;;59.70;31.88;;;;;;;6.48;65.42;94550.16;5025314;28;20064;-82
2021/12/26 06:57:24;;;;;;;50.45;27.55;;;;;;;6.41;65.25;94579.63;5024656;28;20030;-82
2021/12/26 06:59:49;;;;;;;51.72;28.38;;;;;;;6.50;64.52;94563.66;4990649;28;20060;-81
2021/12/26 07:02:15;;;;;;;56.05;28.52;;;;;;;6.65;64.47;94580.63;5006813;28;20644;-81
2021/12/26 07:04:40;;;;;;;58.28;28.95;;;;;;;6.71;64.21;94575.41;5025362;28;20060;-82
2021/12/26 07:07:06;;;;;;;59.13;32.65;;;;;;;6.81;64.61;94588.59;5008453;28;20030;-81
2021/12/26 07:09:31;;;;;;;96.13;55.17;;;;;;;6.93;64.55;94594.66;5024438;28;20030;-81
2021/12/26 07:11:57;;;;;;;110.05;65.35;;;;;;;7.01;64.54;94596.19;5026406;28;20516;-82
2021/12/26 07:14:22;;;;;;;153.85;84.72;;;;;;;7.07;64.23;94594.53;5024829;28;20061;-82
2021/12/26 07:16:48;;;;;;;147.38;88.90;;;;;;;7.09;64.32;94592.53;5008259;28;20037;-81
2021/12/26 07:19:15;;;;;;;141.88;83.32;;;;;;;7.09;64.24;94598.47;5024334;28;20045;-81
2021/12/26 07:21:41;;;;;;;168.40;91.20;;;;;;;7.08;64.54;94594.31;5007050;28;20041;-81
2021/12/26 07:24:07;;;;;;;151.43;94.47;;;;;;;7.09;64.71;94590.72;5025136;28;20030;-81
2021/12/26 07:26:38;;;;;;;167.43;103.85;;;;;;;7.22;64.60;94587.22;5025888;28;20512;-81
2021/12/26 07:29:04;;;;;;;155.20;93.28;;;;;;;7.24;64.71;94577.44;5006685;28;20038;-81
2021/12/26 07:31:30;;;;;;;98.63;57.20;;;;;;;7.31;63.47;94587.69;5020649;28;20033;-80
2021/12/26 07:34:06;;;;;;;151.60;96.05;;;;;;;7.39;63.21;94587.41;5023068;28;20033;-80
2021/12/26 07:36:32;;;;;;;110.82;64.78;;;;;;;7.46;62.95;94582.94;5007107;28;20071;-82
2021/12/26 07:38:58;;;;;;;159.80;93.80;;;;;;;7.45;63.15;94595.09;5009185;28;20034;-81
2021/12/26 07:41:23;;;;;;;147.98;81.28;;;;;;;7.44;63.28;94584.97;4996441;28;20026;-81
2021/12/26 07:43:49;;;;;;;97.55;55.92;;;;;;;7.40;63.94;94589.00;5024017;28;20472;-81
2021/12/26 07:46:15;;;;;;;94.70;56.25;;;;;;;7.38;63.71;94575.50;4991446;28;20037;-81
2021/12/26 07:48:40;;;;;;;90.50;52.03;;;;;;;7.42;63.51;94567.06;5052410;23;20565;-82
2021/12/26 07:51:26;;;;;;;81.30;46.55;;;;;;;7.46;63.33;94578.56;5026764;28;20041;-82
2021/12/26 07:53:51;;;;;;;81.82;50.15;;;;;;;7.51;63.03;94573.53;5024037;28;20046;-82
2021/12/26 07:56:18;;;;;;;75.35;50.33;;;;;;;7.59;62.43;94582.78;5024798;28;20037;-82
2021/12/26 07:58:44;;;;;;;83.70;52.78;;;;;;;7.62;62.41;94577.16;5007639;28;20060;-82
2021/12/26 08:01:09;;;;;;;103.68;64.57;;;;;;;7.65;63.03;94579.34;5006860;28;20033;-82
2021/12/26 08:03:39;;;;;;;51.53;31.30;;;;;;;7.72;61.86;94567.09;5009132;28;20048;-82
2021/12/26 08:06:07;;;;;;;45.03;29.00;;;;;;;7.77;61.79;94563.84;4975053;28;20049;-82
2021/12/26 08:08:32;;;;;;;35.00;19.67;;;;;;;7.69;62.08;94553.81;4992778;28;20022;-83
2021/12/26 08:11:04;;;;;;;35.08;20.90;;;;;;;7.72;61.67;94556.72;4990968;28;20034;-82
2021/12/26 08:13:31;;;;;;;36.53;22.58;;;;;;;7.76;62.03;94552.69;5022648;28;20079;-82
2021/12/26 08:15:57;;;;;;;31.70;21.13;;;;;;;7.71;62.28;94536.25;5025156;28;20103;-82
2021/12/26 08:20:57;;;;;;;28.50;17.40;;;;;;;7.66;62.17;94552.44;5271351;22;20491;-81
2021/12/26 08:23:25;;;;;;;32.70;19.73;;;;;;;7.81;61.79;94565.78;5030197;28;20531;-79
2021/12/26 08:25:50;;;;;;;30.65;18.38;;;;;;;7.86;62.03;94556.56;5024475;28;20117;-80
2021/12/26 08:28:16;;;;;;;38.58;17.20;;;;;;;8.01;61.51;94551.75;4990526;28;20575;-81
2021/12/26 08:30:42;;;;;;;35.50;17.42;;;;;;;8.12;60.89;94546.59;5005610;28;20476;-81
2021/12/26 08:33:08;;;;;;;41.10;18.67;;;;;;;8.14;60.75;94543.81;4989486;28;20030;-82
2021/12/26 08:35:34;;;;;;;28.23;16.40;;;;;;;8.25;60.63;94555.97;5005058;28;20631;-78
2021/12/26 08:37:59;;;;;;;27.55;15.48;;;;;;;8.34;60.10;94564.25;5023046;28;20437;-78
2021/12/26 08:40:25;;;;;;;50.13;27.17;;;;;;;8.47;61.01;94583.97;5005589;28;20492;-78
2021/12/26 08:42:50;;;;;;;34.88;21.20;;;;;;;8.60;61.28;94579.34;5007847;28;20038;-79
2021/12/26 08:45:16;;;;;;;34.40;20.40;;;;;;;8.64;60.36;94574.53;5009546;28;20105;-79
2021/12/26 08:47:42;;;;;;;48.70;24.17;;;;;;;8.71;61.17;94575.19;4992495;28;20045;-80
2021/12/26 08:50:08;;;;;;;51.00;30.77;;;;;;;8.80;61.08;94558.28;4993180;28;20040;-79
2021/12/26 08:52:36;;;;;;;45.88;24.45;;;;;;;8.87;60.80;94551.16;4998207;28;20025;-79
2021/12/26 08:55:02;;;;;;;42.05;25.08;;;;;;;8.95;60.67;94555.22;5007297;28;20505;-80
2021/12/26 08:57:28;;;;;;;39.65;23.52;;;;;;;9.00;59.29;94573.47;5006566;28;20033;-80
2021/12/26 08:59:53;;;;;;;37.58;22.27;;;;;;;9.07;59.62;94562.97;5007724;28;20034;-80
2021/12/26 09:02:18;;;;;;;44.03;24.60;;;;;;;9.06;59.17;94562.19;4990043;28;20390;-79
2021/12/26 09:04:44;;;;;;;44.38;25.83;;;;;;;9.14;59.41;94563.66;5007301;28;20030;-81
2021/12/26 09:07:09;;;;;;;34.75;20.92;;;;;;;9.18;59.21;94551.81;5004927;28;20026;-80
2021/12/26 09:09:36;;;;;;;42.65;22.85;;;;;;;9.14;59.27;94548.09;4997334;28;20025;-80
2021/12/26 09:12:01;;;;;;;37.13;23.05;;;;;;;9.24;59.40;94548.28;4988583;28;20100;-81
2021/12/26 09:14:28;;;;;;;49.95;26.27;;;;;;;9.32;59.63;94540.16;5023657;28;20038;-79
2021/12/26 09:16:57;;;;;;;43.17;24.42;;;;;;;9.37;59.24;94536.84;4989854;28;20583;-79
2021/12/26 09:19:23;;;;;;;41.75;26.95;;;;;;;9.42;58.57;94540.31;5023087;28;20029;-78
2021/12/26 09:21:49;;;;;;;45.80;27.50;;;;;;;9.45;59.57;94539.88;5006167;28;20034;-78
2021/12/26 09:24:15;;;;;;;43.85;26.40;;;;;;;9.51;58.97;94543.34;5023237;28;20034;-80
2021/12/26 09:26:41;;;;;;;45.10;27.50;;;;;;;9.47;59.04;94543.03;5023662;28;20053;-78
2021/12/26 09:29:06;;;;;;;50.50;27.35;;;;;;;9.58;59.05;94544.00;5005882;28;20029;-80
2021/12/26 09:31:31;;;;;;;45.10;26.25;;;;;;;9.63;58.19;94544.91;5004150;28;20092;-80
2021/12/26 09:33:57;;;;;;;48.08;26.35;;;;;;;9.70;58.49;94551.75;5034845;22;20052;-78
2021/12/26 09:36:22;;;;;;;42.88;24.55;;;;;;;9.75;59.09;94541.44;5032578;28;20480;-80
2021/12/26 09:38:48;;;;;;;43.30;26.15;;;;;;;9.77;58.87;94547.22;5039090;28;20032;-80
2021/12/26 09:41:13;;;;;;;47.65;26.48;;;;;;;9.78;58.28;94535.81;5025703;28;20092;-79
2021/12/26 09:43:39;;;;;;;48.50;24.77;;;;;;;9.80;58.64;94557.13;5043881;28;20037;-80
2021/12/26 09:46:04;;;;;;;42.83;25.00;;;;;;;9.86;58.39;94551.00;5026203;28;20436;-80
2021/12/26 09:48:30;;;;;;;34.90;19.70;;;;;;;9.79;56.86;94534.78;5009483;28;20068;-79
2021/12/26 09:50:55;;;;;;;38.53;24.13;;;;;;;9.72;57.85;94560.09;5012845;28;20041;-80
2021/12/26 09:53:23;;;;;;;54.90;25.75;;;;;;;9.79;58.03;94539.97;5024415;28;20480;-80
2021/12/26 09:55:49;;;;;;;47.83;25.70;;;;;;;9.73;58.01;94533.09;5041818;28;20044;-80
2021/12/26 09:58:14;;;;;;;37.90;22.70;;;;;;;9.83;58.23;94546.28;5042938;28;20029;-79
2021/12/26 10:00:41;;;;;;;43.40;26.13;;;;;;;9.93;57.87;94546.47;5025429;28;20217;-80
2021/12/26 10:03:22;;;;;;;65.25;38.42;;;;;;;10.05;58.12;94548.97;4995457;28;20028;-79
2021/12/26 10:06:08;;;;;;;79.50;41.60;;;;;;;10.15;57.26;94549.16;5009868;28;20048;-79
2021/12/26 10:08:36;;;;;;;76.90;43.00;;;;;;;10.13;57.37;94548.59;5027535;28;20024;-80
2021/12/26 10:11:12;;;;;;;50.10;28.52;;;;;;;10.12;56.59;94534.03;5030419;28;20473;-80
2021/12/26 10:13:49;;;;;;;60.00;31.95;;;;;;;10.20;56.63;94542.22;5060836;28;20116;-79
2021/12/26 10:16:16;;;;;;;76.50;40.03;;;;;;;10.21;57.57;94537.84;5060429;28;20102;-79
2021/12/26 10:18:42;;;;;;;42.75;23.00;;;;;;;10.05;56.71;94539.38;5025453;28;20033;-80
2021/12/26 10:21:27;;;;;;;19.52;14.13;;;;;;;9.95;56.33;94541.81;5044805;28;20539;-80
2021/12/26 10:23:57;;;;;;;28.98;14.75;;;;;;;10.03;55.79;94561.41;5019526;28;20513;-80
2021/12/26 10:26:30;;;;;;;25.73;12.73;;;;;;;10.00;56.16;94556.69;5013157;28;20144;-80
2021/12/26 10:29:39;;;;;;;30.58;15.25;;;;;;;9.97;56.50;94578.72;5030041;28;20042;-80
2021/12/26 10:32:38;;;;;;;28.20;17.05;;;;;;;10.09;55.37;94545.69;4957357;29;20071;-79
2021/12/26 10:35:08;;;;;;;27.58;14.18;;;;;;;9.96;55.79;94548.59;4920427;29;20527;-80
2021/12/26 10:37:34;;;;;;;20.25;13.52;;;;;;;9.92;56.04;94556.06;5002703;28;20037;-79
2021/12/26 10:40:11;;;;;;;22.23;15.10;;;;;;;9.82;56.83;94519.53;5042463;28;20404;-80
2021/12/26 10:42:44;;;;;;;22.23;14.05;;;;;;;9.14;58.54;94529.94;5029360;28;20103;-78
2021/12/26 10:45:15;;;;;;;24.17;14.50;;;;;;;9.31;58.54;94539.38;5011064;28;20040;-79
2021/12/26 10:47:43;;;;;;;22.48;14.68;;;;;;;9.56;57.30;94530.47;5010839;28;20032;-79
2021/12/26 10:50:11;;;;;;;24.95;15.55;;;;;;;9.60;56.33;94537.59;5013015;28;20112;-80
2021/12/26 10:52:50;;;;;;;21.42;12.68;;;;;;;9.75;57.05;94544.81;5013923;28;20059;-79
2021/12/26 10:55:27;;;;;;;28.05;14.18;;;;;;;10.02;55.66;94542.44;5012664;28;20108;-80
2021/12/26 10:57:52;;;;;;;21.00;12.85;;;;;;;10.22;54.89;94535.00;5032471;28;20552;-81
2021/12/26 11:00:26;;;;;;;22.13;13.52;;;;;;;10.41;54.68;94530.38;5013019;28;20028;-81
2021/12/26 11:02:53;;;;;;;23.67;11.88;;;;;;;10.66;54.33;94539.56;4994479;28;20104;-78
2021/12/26 11:05:24;;;;;;;36.65;15.50;;;;;;;10.91;52.80;94546.94;5010166;28;20059;-80
2021/12/26 11:08:00;;;;;;;26.15;16.77;;;;;;;10.87;52.98;94553.63;5029382;28;20473;-80
2021/12/26 11:10:33;;;;;;;29.00;17.40;;;;;;;10.98;52.88;94553.53;5008973;28;20041;-79
2021/12/26 11:13:00;;;;;;;27.10;15.68;;;;;;;11.15;52.89;94543.09;5045632;28;20049;-84
2021/12/26 11:15:31;;;;;;;24.27;15.38;;;;;;;11.28;53.45;94547.94;5026495;28;20501;-79
2021/12/26 11:18:05;;;;;;;32.13;15.48;;;;;;;11.43;51.68;94540.31;5044551;28;20109;-80
2021/12/26 11:20:39;;;;;;;27.60;14.90;;;;;;;11.41;51.53;94531.97;5021308;28;20504;-79
2021/12/26 11:23:16;;;;;;;21.05;14.45;;;;;;;11.52;51.78;94529.44;5012101;28;20036;-79
2021/12/26 11:25:52;;;;;;;27.10;15.18;;;;;;;11.65;51.08;94552.53;5044749;28;20032;-79
2021/12/26 11:28:26;;;;;;;27.05;16.10;;;;;;;11.66;51.55;94549.66;5011067;28;20040;-79
2021/12/26 11:30:52;;;;;;;33.40;18.48;;;;;;;11.70;51.00;94539.53;5011437;28;20033;-79